Time;durP1;ratioP1;P1;durP2;ratioP2;P2;SDS_P1;SDS_P2;PMS_P1;PMS_P2;Temp;Humidity;BMP_temperature;BMP_pressure;BME280_temperature;BME280_humidity;BME280_pressure;Samples;Min_cycle;Max_cycle;Signal;HPM_P1;HPM_P2
2023/06/11 00:01:08;;;;;;;2.33;1.40;;;;;;;;;;5023788;28;20030;-75
2023/06/11 00:03:34;;;;;;;1.63;1.38;;;;;;;;;;5012161;28;20030;-75
2023/06/11 00:06:00;;;;;;;3.08;1.50;;;;;;;;;;5017863;28;20108;-75
2023/06/11 00:08:26;;;;;;;2.50;1.45;;;;;;;;;;5024264;28;20109;-75
2023/06/11 00:10:52;;;;;;;1.33;1.23;;;;;;;;;;5023409;28;20028;-74
2023/06/11 00:13:18;;;;;;;2.40;1.50;;;;;;;;;;5022715;28;20025;-75
2023/06/11 00:15:44;;;;;;;1.50;1.23;;;;;;;;;;5025968;28;20040;-73
2023/06/11 00:18:10;;;;;;;2.38;1.60;;;;;;;;;;5020032;28;20733;-75
2023/06/11 00:20:40;;;;;;;1.90;1.50;;;;;;;;;;5014127;28;20168;-74
2023/06/11 00:23:06;;;;;;;1.63;1.42;;;;;;;;;;5023311;28;20433;-75
2023/06/11 00:25:32;;;;;;;2.72;1.23;;;;;;;;;;5020199;28;20067;-75
2023/06/11 00:27:58;;;;;;;8.65;1.67;;;;;;;;;;5014888;28;20018;-74
2023/06/11 00:30:24;;;;;;;1.23;1.13;;;;;;;;;;5024262;28;20029;-75
2023/06/11 00:32:50;;;;;;;1.95;1.10;;;;;;;;;;5024383;28;20453;-75
2023/06/11 00:35:17;;;;;;;5.15;1.63;;;;;;;;;;5017924;28;20030;-75
2023/06/11 00:37:43;;;;;;;1.95;1.38;;;;;;;;;;5022969;28;20435;-75
2023/06/11 00:40:09;;;;;;;2.78;1.52;;;;;;;;;;5016261;28;20489;-74
2023/06/11 00:42:35;;;;;;;3.35;1.50;;;;;;;;;;5025173;28;20030;-75
2023/06/11 00:45:03;;;;;;;2.83;1.40;;;;;;;;;;5017658;28;20180;-75
2023/06/11 00:47:29;;;;;;;3.90;1.30;;;;;;;;;;5015720;28;20092;-75
2023/06/11 00:49:56;;;;;;;3.78;1.30;;;;;;;;;;5026465;28;20362;-74
2023/06/11 00:52:22;;;;;;;1.63;1.15;;;;;;;;;;5028107;28;20128;-75
2023/06/11 00:54:49;;;;;;;2.08;1.55;;;;;;;;;;5028633;28;20392;-75
2023/06/11 00:57:17;;;;;;;1.25;1.10;;;;;;;;;;5022339;28;20034;-75
2023/06/11 00:59:48;;;;;;;5.30;1.48;;;;;;;;;;5014389;28;20029;-74
2023/06/11 01:02:21;;;;;;;2.40;1.50;;;;;;;;;;5020582;28;20345;-75
2023/06/11 01:04:47;;;;;;;2.00;1.40;;;;;;;;;;5024497;28;20074;-75
2023/06/11 01:07:15;;;;;;;1.83;1.20;;;;;;;;;;5019871;28;20036;-75
2023/06/11 01:09:43;;;;;;;1.58;1.27;;;;;;;;;;5021580;28;20656;-75
2023/06/11 01:12:09;;;;;;;1.35;1.15;;;;;;;;;;5023201;28;20072;-74
2023/06/11 01:14:35;;;;;;;1.70;1.25;;;;;;;;;;5025545;28;20117;-75
2023/06/11 01:17:05;;;;;;;5.15;1.50;;;;;;;;;;5026587;28;20048;-75
2023/06/11 01:19:31;;;;;;;1.27;1.13;;;;;;;;;;5021886;28;20044;-75
2023/06/11 01:22:00;;;;;;;2.35;1.13;;;;;;;;;;5020951;28;20029;-75
2023/06/11 01:24:40;;;;;;;2.58;1.52;;;;;;;;;;5025699;28;20046;-75
2023/06/11 01:27:11;;;;;;;2.55;1.42;;;;;;;;;;5019177;28;20022;-75
2023/06/11 01:29:45;;;;;;;1.50;1.30;;;;;;;;;;5017594;28;20551;-75
2023/06/11 01:32:11;;;;;;;5.30;1.50;;;;;;;;;;5018375;28;20038;-74
2023/06/11 01:34:41;;;;;;;2.63;1.35;;;;;;;;;;5025060;28;20025;-75
2023/06/11 01:37:09;;;;;;;1.83;1.40;;;;;;;;;;5016260;28;20070;-75
2023/06/11 01:39:35;;;;;;;4.00;1.35;;;;;;;;;;5017835;28;20120;-74
2023/06/11 01:42:01;;;;;;;1.50;1.20;;;;;;;;;;5020635;28;20034;-74
2023/06/11 01:44:28;;;;;;;1.38;1.05;;;;;;;;;;5013196;28;20041;-74
2023/06/11 01:46:54;;;;;;;1.88;1.40;;;;;;;;;;5019575;28;20543;-74
2023/06/11 01:49:20;;;;;;;2.03;1.42;;;;;;;;;;5015283;28;20025;-74
2023/06/11 01:51:46;;;;;;;1.98;1.42;;;;;;;;;;5025374;28;20083;-74
2023/06/11 01:54:12;;;;;;;2.13;1.05;;;;;;;;;;5018846;28;20112;-75
2023/06/11 01:56:38;;;;;;;2.30;1.42;;;;;;;;;;5019257;28;20029;-75
2023/06/11 01:59:04;;;;;;;2.08;1.30;;;;;;;;;;5019952;28;20060;-75
2023/06/11 02:01:32;;;;;;;1.73;1.30;;;;;;;;;;5019652;28;20594;-74
2023/06/11 02:03:58;;;;;;;2.35;1.15;;;;;;;;;;5017217;28;20547;-75
2023/06/11 02:06:25;;;;;;;3.00;1.33;;;;;;;;;;5022694;28;20025;-74
2023/06/11 02:08:51;;;;;;;2.25;1.20;;;;;;;;;;5020104;28;20044;-74
2023/06/11 02:11:17;;;;;;;1.83;1.38;;;;;;;;;;5021599;28;20031;-74
2023/06/11 02:13:43;;;;;;;1.58;1.17;;;;;;;;;;5021173;28;20030;-75
2023/06/11 02:16:12;;;;;;;3.47;1.25;;;;;;;;;;5020836;28;20034;-75
2023/06/11 02:18:38;;;;;;;3.03;1.60;;;;;;;;;;5022109;28;20034;-75
2023/06/11 02:21:04;;;;;;;6.85;1.30;;;;;;;;;;5014134;28;20096;-74
2023/06/11 02:23:30;;;;;;;2.58;1.50;;;;;;;;;;5016944;28;20557;-74
2023/06/11 02:25:56;;;;;;;1.25;0.98;;;;;;;;;;5022393;28;20017;-74
2023/06/11 02:28:22;;;;;;;1.88;1.10;;;;;;;;;;5018029;28;20048;-74
2023/06/11 02:30:48;;;;;;;1.35;1.13;;;;;;;;;;5022280;28;20260;-74
2023/06/11 02:33:13;;;;;;;1.80;0.95;;;;;;;;;;5022628;28;20091;-75
2023/06/11 02:35:39;;;;;;;1.67;1.27;;;;;;;;;;5020975;28;20056;-75
2023/06/11 02:38:05;;;;;;;1.58;1.10;;;;;;;;;;5017724;28;20120;-75
2023/06/11 02:40:31;;;;;;;2.35;1.45;;;;;;;;;;5019491;28;20021;-74
2023/06/11 02:42:57;;;;;;;1.70;1.02;;;;;;;;;;5018076;28;20393;-74
2023/06/11 02:45:23;;;;;;;1.52;0.93;;;;;;;;;;5018614;28;20461;-75
2023/06/11 02:47:49;;;;;;;2.20;1.25;;;;;;;;;;5011997;28;20072;-75
2023/06/11 02:50:15;;;;;;;2.17;1.08;;;;;;;;;;5018293;28;20052;-75
2023/06/11 02:52:44;;;;;;;1.38;1.17;;;;;;;;;;5025486;28;20033;-74
2023/06/11 02:55:10;;;;;;;2.63;1.67;;;;;;;;;;5018163;28;20029;-74
2023/06/11 02:57:36;;;;;;;1.40;1.23;;;;;;;;;;5025967;28;20017;-74
2023/06/11 03:00:03;;;;;;;2.85;1.45;;;;;;;;;;5020555;28;20040;-74
2023/06/11 03:02:29;;;;;;;2.38;1.60;;;;;;;;;;5023279;28;20399;-74
2023/06/11 03:04:55;;;;;;;2.53;1.50;;;;;;;;;;5023515;28;20192;-75
2023/06/11 03:07:21;;;;;;;2.55;1.55;;;;;;;;;;5012354;28;20393;-75
2023/06/11 03:09:46;;;;;;;4.25;1.50;;;;;;;;;;5016660;28;20473;-75
2023/06/11 03:12:12;;;;;;;1.38;1.00;;;;;;;;;;5015710;28;20030;-74
2023/06/11 03:14:38;;;;;;;2.70;1.30;;;;;;;;;;5023648;28;20029;-75
2023/06/11 03:17:04;;;;;;;1.95;1.27;;;;;;;;;;5024936;28;20029;-75
2023/06/11 03:19:30;;;;;;;1.67;1.17;;;;;;;;;;5024000;28;20119;-74
2023/06/11 03:21:56;;;;;;;1.92;1.48;;;;;;;;;;5026569;28;20029;-74
2023/06/11 03:24:22;;;;;;;2.28;1.30;;;;;;;;;;5025242;28;20107;-75
2023/06/11 03:26:48;;;;;;;2.58;1.40;;;;;;;;;;5028551;28;20021;-74
2023/06/11 03:29:14;;;;;;;2.45;1.58;;;;;;;;;;5022557;28;20049;-75
2023/06/11 03:31:40;;;;;;;2.30;1.10;;;;;;;;;;5022293;28;20022;-74
2023/06/11 03:34:06;;;;;;;1.38;1.23;;;;;;;;;;5014876;28;20693;-74
2023/06/11 03:36:32;;;;;;;1.65;1.30;;;;;;;;;;5025881;28;20034;-75
2023/06/11 03:38:58;;;;;;;2.67;1.45;;;;;;;;;;5021150;28;20079;-74
2023/06/11 03:41:25;;;;;;;2.47;1.15;;;;;;;;;;5022808;28;20033;-74
2023/06/11 03:43:51;;;;;;;1.40;1.13;;;;;;;;;;5023478;28;20038;-75
2023/06/11 03:46:19;;;;;;;1.55;1.15;;;;;;;;;;5019796;28;20469;-75
2023/06/11 03:48:45;;;;;;;3.30;1.60;;;;;;;;;;5026570;28;20048;-75
2023/06/11 03:51:11;;;;;;;4.57;1.13;;;;;;;;;;5027454;28;20778;-74
2023/06/11 03:53:37;;;;;;;1.45;1.00;;;;;;;;;;5020744;28;20025;-75
2023/06/11 03:56:03;;;;;;;2.33;1.23;;;;;;;;;;5026104;28;20111;-75
2023/06/11 03:58:29;;;;;;;2.92;1.50;;;;;;;;;;5022246;28;20268;-75
2023/06/11 04:00:55;;;;;;;2.67;1.42;;;;;;;;;;5027900;28;20070;-75
2023/06/11 04:03:21;;;;;;;2.58;1.48;;;;;;;;;;5024933;28;20042;-75
2023/06/11 04:05:47;;;;;;;2.97;1.40;;;;;;;;;;5027174;28;20032;-74
2023/06/11 04:08:13;;;;;;;1.33;1.20;;;;;;;;;;5021136;28;20086;-74
2023/06/11 04:10:39;;;;;;;2.45;1.30;;;;;;;;;;5023985;28;20037;-74
2023/06/11 04:13:05;;;;;;;0.98;0.90;;;;;;;;;;5018675;28;20041;-75
2023/06/11 04:15:32;;;;;;;4.22;2.00;;;;;;;;;;5020734;28;20037;-75
2023/06/11 04:17:58;;;;;;;4.80;1.40;;;;;;;;;;5013180;28;20088;-75
2023/06/11 04:20:24;;;;;;;3.28;1.30;;;;;;;;;;5027511;28;20049;-75
2023/06/11 04:22:50;;;;;;;2.78;1.20;;;;;;;;;;5019207;28;20034;-74
2023/06/11 04:25:16;;;;;;;2.20;1.42;;;;;;;;;;5022503;28;20491;-75
2023/06/11 04:27:43;;;;;;;2.25;1.17;;;;;;;;;;5028949;28;20030;-75
2023/06/11 04:30:10;;;;;;;1.52;1.13;;;;;;;;;;5016688;28;20036;-75
2023/06/11 04:32:36;;;;;;;4.55;1.25;;;;;;;;;;5010998;28;20476;-74
2023/06/11 04:35:03;;;;;;;2.03;1.30;;;;;;;;;;5019380;28;20492;-74
2023/06/11 04:37:30;;;;;;;2.35;1.20;;;;;;;;;;5027034;28;20116;-75
2023/06/11 04:39:57;;;;;;;1.92;1.30;;;;;;;;;;5027423;28;20532;-75
2023/06/11 04:42:24;;;;;;;1.73;1.20;;;;;;;;;;5023322;28;20361;-75
2023/06/11 04:44:50;;;;;;;1.88;1.35;;;;;;;;;;5016772;28;20034;-74
2023/06/11 04:47:22;;;;;;;2.38;1.10;;;;;;;;;;5029430;28;20083;-75
2023/06/11 04:49:52;;;;;;;4.72;0.90;;;;;;;;;;5025487;28;20010;-75
2023/06/11 04:52:21;;;;;;;2.80;1.17;;;;;;;;;;5022582;28;20032;-74
2023/06/11 04:54:47;;;;;;;2.22;1.23;;;;;;;;;;5021074;28;20032;-75
2023/06/11 04:57:14;;;;;;;1.75;1.30;;;;;;;;;;5023364;28;20037;-76
2023/06/11 04:59:40;;;;;;;2.42;0.95;;;;;;;;;;5027153;28;20033;-76
2023/06/11 05:02:06;;;;;;;1.27;0.88;;;;;;;;;;5013275;28;20033;-76
2023/06/11 05:04:32;;;;;;;1.90;1.15;;;;;;;;;;5028278;28;20053;-76
2023/06/11 05:07:00;;;;;;;1.48;1.00;;;;;;;;;;5025194;28;20100;-76
2023/06/11 05:09:26;;;;;;;1.17;1.08;;;;;;;;;;5017769;28;20042;-76
2023/06/11 05:11:52;;;;;;;1.20;1.10;;;;;;;;;;5021427;28;20033;-76
2023/06/11 05:14:18;;;;;;;1.55;1.10;;;;;;;;;;5019272;28;20036;-75
2023/06/11 05:16:45;;;;;;;0.95;0.93;;;;;;;;;;5019119;28;20033;-76
2023/06/11 05:19:11;;;;;;;1.38;1.27;;;;;;;;;;5024080;28;20132;-75
2023/06/11 05:21:37;;;;;;;1.20;0.90;;;;;;;;;;5025193;28;20033;-76
2023/06/11 05:24:18;;;;;;;2.75;1.08;;;;;;;;;;5028213;28;20041;-76
2023/06/11 05:26:44;;;;;;;1.73;1.02;;;;;;;;;;5016627;28;20108;-76
2023/06/11 05:29:10;;;;;;;0.80;0.80;;;;;;;;;;5019286;28;20037;-75
2023/06/11 05:31:36;;;;;;;1.15;1.00;;;;;;;;;;5017755;28;20025;-76
2023/06/11 05:34:02;;;;;;;1.10;1.00;;;;;;;;;;5017451;28;20057;-76
2023/06/11 05:36:28;;;;;;;0.85;0.82;;;;;;;;;;5024255;28;20037;-76
2023/06/11 05:38:55;;;;;;;1.33;0.95;;;;;;;;;;5029539;28;20029;-75
2023/06/11 05:41:21;;;;;;;2.53;1.10;;;;;;;;;;5022741;28;20026;-76
2023/06/11 05:43:47;;;;;;;1.65;1.17;;;;;;;;;;5024213;28;20057;-75
2023/06/11 05:46:14;;;;;;;2.13;1.00;;;;;;;;;;5018823;28;20067;-76
2023/06/11 05:48:41;;;;;;;1.67;1.38;;;;;;;;;;5020843;28;20029;-75
2023/06/11 05:51:07;;;;;;;3.70;0.95;;;;;;;;;;5016849;28;20022;-76
2023/06/11 05:53:33;;;;;;;2.60;0.88;;;;;;;;;;5019003;28;20399;-75
2023/06/11 05:56:03;;;;;;;1.15;0.82;;;;;;;;;;5017957;28;20395;-75
2023/06/11 05:58:31;;;;;;;0.90;0.90;;;;;;;;;;5021709;28;20101;-76
2023/06/11 06:00:57;;;;;;;1.65;0.95;;;;;;;;;;5013330;28;20021;-75
2023/06/11 06:03:23;;;;;;;0.98;0.90;;;;;;;;;;5017893;28;20069;-75
2023/06/11 06:05:49;;;;;;;1.08;0.90;;;;;;;;;;5022827;28;20507;-76
2023/06/11 06:08:15;;;;;;;0.80;0.80;;;;;;;;;;5022330;28;20052;-75
2023/06/11 06:10:41;;;;;;;0.77;0.77;;;;;;;;;;5027060;28;20112;-76
2023/06/11 06:13:07;;;;;;;1.35;1.17;;;;;;;;;;5021189;28;20034;-75
2023/06/11 06:15:33;;;;;;;1.38;1.05;;;;;;;;;;5016011;28;20290;-75
2023/06/11 06:17:59;;;;;;;1.02;0.75;;;;;;;;;;5021596;28;20022;-76
2023/06/11 06:20:25;;;;;;;2.80;1.05;;;;;;;;;;5021935;28;20029;-76
2023/06/11 06:22:51;;;;;;;1.23;0.90;;;;;;;;;;5022567;28;20025;-75
2023/06/11 06:25:17;;;;;;;1.30;1.05;;;;;;;;;;5023784;28;20025;-75
2023/06/11 06:27:43;;;;;;;0.80;0.80;;;;;;;;;;5016410;28;20030;-74
2023/06/11 06:30:09;;;;;;;1.63;0.90;;;;;;;;;;5015616;28;20021;-74
2023/06/11 06:32:38;;;;;;;1.35;1.10;;;;;;;;;;5010965;28;20399;-75
2023/06/11 06:35:04;;;;;;;1.67;1.27;;;;;;;;;;5022086;28;20091;-74
2023/06/11 06:37:35;;;;;;;1.15;0.93;;;;;;;;;;5021334;28;20033;-81
2023/06/11 06:40:01;;;;;;;1.92;1.20;;;;;;;;;;5027608;28;20029;-80
2023/06/11 06:42:28;;;;;;;1.52;0.80;;;;;;;;;;5010566;28;20072;-81
2023/06/11 06:44:54;;;;;;;1.55;0.90;;;;;;;;;;5014108;28;20039;-81
2023/06/11 06:47:20;;;;;;;1.23;1.13;;;;;;;;;;5025734;28;20032;-81
2023/06/11 06:49:45;;;;;;;1.77;1.10;;;;;;;;;;5022571;28;20028;-86
2023/06/11 06:52:11;;;;;;;1.00;0.82;;;;;;;;;;5019406;28;20029;-85
2023/06/11 06:54:38;;;;;;;1.50;1.00;;;;;;;;;;5020142;28;20117;-84
2023/06/11 06:57:07;;;;;;;2.17;0.80;;;;;;;;;;5021777;28;20113;-84
2023/06/11 06:59:33;;;;;;;1.45;0.98;;;;;;;;;;5013548;28;20036;-84
2023/06/11 07:01:59;;;;;;;1.92;1.10;;;;;;;;;;5014079;28;20018;-83
2023/06/11 07:04:25;;;;;;;1.83;1.17;;;;;;;;;;5010828;28;20087;-83
2023/06/11 07:06:51;;;;;;;1.27;0.98;;;;;;;;;;5024564;28;20120;-82
2023/06/11 07:09:17;;;;;;;1.27;1.10;;;;;;;;;;5016943;28;20026;-83
2023/06/11 07:11:43;;;;;;;1.73;1.00;;;;;;;;;;5026803;28;20025;-87
2023/06/11 07:14:09;;;;;;;2.30;1.55;;;;;;;;;;5026469;28;20680;-85
2023/06/11 07:16:35;;;;;;;2.72;1.17;;;;;;;;;;5021029;28;20420;-81
2023/06/11 07:19:01;;;;;;;5.68;1.08;;;;;;;;;;5012246;28;20046;-86
2023/06/11 07:21:30;;;;;;;2.30;0.85;;;;;;;;;;5019812;28;20034;-81
2023/06/11 07:23:58;;;;;;;1.30;1.20;;;;;;;;;;5023390;28;20554;-86
2023/06/11 07:26:25;;;;;;;1.15;0.85;;;;;;;;;;5013052;28;20029;-87
2023/06/11 07:28:51;;;;;;;2.40;1.33;;;;;;;;;;5018038;28;20018;-86
2023/06/11 07:31:17;;;;;;;1.65;1.20;;;;;;;;;;5012573;28;20041;-85
2023/06/11 07:33:44;;;;;;;1.42;1.02;;;;;;;;;;5019600;28;20032;-85
2023/06/11 07:36:10;;;;;;;2.45;1.02;;;;;;;;;;5024094;28;20108;-85
2023/06/11 07:38:36;;;;;;;1.52;1.08;;;;;;;;;;5013850;28;20068;-86
2023/06/11 07:41:02;;;;;;;1.27;0.70;;;;;;;;;;5016396;28;20044;-88
2023/06/11 07:43:27;;;;;;;6.03;1.33;;;;;;;;;;5028247;28;20029;-87
2023/06/11 07:45:53;;;;;;;1.88;0.82;;;;;;;;;;5026256;28;20033;-85
2023/06/11 07:48:20;;;;;;;1.88;0.93;;;;;;;;;;5019957;28;20025;-87
2023/06/11 07:50:46;;;;;;;1.23;0.95;;;;;;;;;;5006522;28;20026;-83
2023/06/11 07:53:12;;;;;;;0.93;0.90;;;;;;;;;;5015216;28;20037;-81
2023/06/11 07:55:39;;;;;;;3.28;1.38;;;;;;;;;;5013613;28;20040;-83
2023/06/11 07:58:05;;;;;;;2.20;1.25;;;;;;;;;;5027832;28;20036;-78
2023/06/11 08:00:31;;;;;;;1.60;0.80;;;;;;;;;;5024791;28;20030;-78
2023/06/11 08:02:57;;;;;;;1.67;1.23;;;;;;;;;;5024466;28;20025;-84
2023/06/11 08:05:23;;;;;;;1.08;0.98;;;;;;;;;;5024643;28;20025;-88
2023/06/11 08:07:49;;;;;;;2.20;1.45;;;;;;;;;;5019927;28;20029;-86
2023/06/11 08:10:15;;;;;;;1.20;0.88;;;;;;;;;;5017758;28;20524;-83
2023/06/11 08:12:42;;;;;;;1.30;1.15;;;;;;;;;;5029441;28;20145;-83
2023/06/11 08:15:08;;;;;;;3.40;1.38;;;;;;;;;;5032784;28;20423;-80
2023/06/11 08:17:34;;;;;;;2.13;1.27;;;;;;;;;;5035361;28;20029;-84
2023/06/11 08:20:02;;;;;;;2.28;1.10;;;;;;;;;;5037088;28;20049;-83
2023/06/11 08:22:28;;;;;;;1.70;1.20;;;;;;;;;;5035766;28;20028;-78
2023/06/11 08:24:53;;;;;;;1.65;1.25;;;;;;;;;;5031190;28;20036;-80
2023/06/11 08:27:22;;;;;;;1.48;1.35;;;;;;;;;;5035029;28;20025;-76
2023/06/11 08:29:48;;;;;;;1.95;1.23;;;;;;;;;;5034020;28;20032;-77
2023/06/11 08:32:14;;;;;;;4.45;1.38;;;;;;;;;;5030139;28;20029;-76
2023/06/11 08:34:40;;;;;;;4.40;1.50;;;;;;;;;;5035520;28;20035;-76
2023/06/11 08:37:06;;;;;;;2.33;1.40;;;;;;;;;;5032547;28;20044;-76
2023/06/11 08:39:32;;;;;;;1.95;1.35;;;;;;;;;;5035056;28;20511;-76
2023/06/11 08:41:58;;;;;;;1.90;1.33;;;;;;;;;;5033297;28;20021;-77
2023/06/11 08:44:24;;;;;;;1.45;1.30;;;;;;;;;;5031475;28;21136;-76
2023/06/11 08:46:52;;;;;;;4.13;1.42;;;;;;;;;;5019812;28;20032;-77
2023/06/11 08:49:22;;;;;;;1.98;1.30;;;;;;;;;;5032817;28;20116;-76
2023/06/11 08:51:48;;;;;;;1.50;1.20;;;;;;;;;;5031886;28;20036;-75
2023/06/11 08:54:14;;;;;;;1.25;1.08;;;;;;;;;;5031773;28;20075;-77
2023/06/11 08:56:40;;;;;;;2.35;1.13;;;;;;;;;;5032872;28;20029;-76
2023/06/11 08:59:07;;;;;;;1.95;1.17;;;;;;;;;;5034657;28;20065;-76
2023/06/11 09:01:33;;;;;;;1.45;1.10;;;;;;;;;;5029398;28;20029;-76
2023/06/11 09:04:00;;;;;;;1.25;1.10;;;;;;;;;;5031595;28;20040;-76
2023/06/11 09:06:27;;;;;;;2.45;1.20;;;;;;;;;;5029667;28;20027;-77
2023/06/11 09:09:12;;;;;;;1.10;1.10;;;;;;;;;;5033650;28;20025;-75
2023/06/11 09:11:39;;;;;;;1.35;1.10;;;;;;;;;;5025518;28;20029;-75
2023/06/11 09:14:05;;;;;;;1.48;1.17;;;;;;;;;;5027237;28;20146;-76
2023/06/11 09:16:39;;;;;;;2.05;1.15;;;;;;;;;;5032827;28;21779;-75
2023/06/11 09:19:05;;;;;;;1.60;1.27;;;;;;;;;;5031748;28;20088;-76
2023/06/11 09:21:31;;;;;;;1.45;1.25;;;;;;;;;;5032705;28;20056;-75
2023/06/11 09:24:06;;;;;;;1.20;0.95;;;;;;;;;;5025512;28;20036;-75
2023/06/11 09:26:32;;;;;;;1.42;1.25;;;;;;;;;;5029599;28;20029;-75
2023/06/11 09:29:25;;;;;;;2.60;1.45;;;;;;;;;;5034126;28;20028;-75
2023/06/11 09:32:03;;;;;;;3.92;1.70;;;;;;;;;;5030439;28;20432;-77
2023/06/11 09:34:29;;;;;;;2.00;1.70;;;;;;;;;;5022533;28;20067;-75
2023/06/11 09:36:55;;;;;;;2.75;1.60;;;;;;;;;;5033217;28;20040;-75
2023/06/11 09:39:22;;;;;;;1.15;1.05;;;;;;;;;;5026628;28;20028;-76
2023/06/11 09:41:51;;;;;;;1.38;1.27;;;;;;;;;;5032196;28;20033;-76
2023/06/11 09:44:17;;;;;;;3.20;1.83;;;;;;;;;;5032249;28;20029;-75
2023/06/11 09:46:44;;;;;;;2.72;1.80;;;;;;;;;;5032566;28;20040;-76
2023/06/11 09:49:11;;;;;;;2.25;1.48;;;;;;;;;;5029253;28;20037;-78
2023/06/11 09:51:38;;;;;;;2.05;1.45;;;;;;;;;;5028706;28;20029;-76
2023/06/11 09:54:06;;;;;;;2.30;1.52;;;;;;;;;;5015915;28;20121;-77
2023/06/11 09:56:32;;;;;;;1.70;1.40;;;;;;;;;;5021241;28;20056;-75
2023/06/11 09:58:59;;;;;;;1.52;1.42;;;;;;;;;;5026179;28;20037;-75
2023/06/11 10:01:25;;;;;;;1.95;1.55;;;;;;;;;;5024060;28;20128;-75
2023/06/11 10:03:51;;;;;;;2.03;1.75;;;;;;;;;;5026662;28;20116;-75
2023/06/11 10:06:20;;;;;;;3.42;1.55;;;;;;;;;;5030611;28;20044;-76
2023/06/11 10:08:48;;;;;;;2.10;1.67;;;;;;;;;;5021285;28;20033;-76
2023/06/11 10:11:15;;;;;;;1.55;1.40;;;;;;;;;;5022420;28;20560;-75
2023/06/11 10:13:41;;;;;;;2.53;1.40;;;;;;;;;;5023839;28;20025;-77
2023/06/11 10:16:08;;;;;;;2.13;1.50;;;;;;;;;;5023013;28;20120;-76
2023/06/11 10:18:34;;;;;;;3.58;2.08;;;;;;;;;;5024857;28;20054;-76
2023/06/11 10:21:08;;;;;;;1.65;1.55;;;;;;;;;;5025680;28;20040;-76
2023/06/11 10:23:36;;;;;;;1.80;1.60;;;;;;;;;;5029580;28;20044;-75
2023/06/11 10:26:02;;;;;;;2.83;1.75;;;;;;;;;;5029335;28;20143;-76
2023/06/11 10:28:45;;;;;;;3.55;2.13;;;;;;;;;;5023527;28;20021;-75
2023/06/11 10:31:11;;;;;;;2.28;1.55;;;;;;;;;;5028306;28;21160;-74
2023/06/11 10:33:44;;;;;;;4.40;1.60;;;;;;;;;;5027580;28;20033;-76
2023/06/11 10:36:10;;;;;;;3.00;1.88;;;;;;;;;;5027813;28;20557;-75
2023/06/11 10:38:39;;;;;;;2.67;1.88;;;;;;;;;;5022322;28;20033;-76
2023/06/11 10:41:05;;;;;;;2.28;1.52;;;;;;;;;;5027870;28;20381;-75
2023/06/11 10:43:32;;;;;;;1.95;1.40;;;;;;;;;;5026715;28;20084;-75
2023/06/11 10:46:06;;;;;;;6.10;2.20;;;;;;;;;;5029381;28;20025;-76
2023/06/11 10:48:33;;;;;;;2.70;1.92;;;;;;;;;;5025641;28;20085;-75
2023/06/11 10:50:59;;;;;;;3.70;2.30;;;;;;;;;;5016996;28;20033;-75
2023/06/11 10:53:36;;;;;;;3.10;2.05;;;;;;;;;;5007937;28;20039;-75
2023/06/11 10:56:02;;;;;;;2.65;1.75;;;;;;;;;;5013521;28;20111;-75
2023/06/11 10:58:29;;;;;;;2.40;2.03;;;;;;;;;;5014450;28;20029;-75
2023/06/11 11:00:56;;;;;;;3.08;1.90;;;;;;;;;;5013915;28;20040;-76
2023/06/11 11:03:22;;;;;;;1.95;1.75;;;;;;;;;;5032185;28;20086;-75
2023/06/11 11:05:52;;;;;;;3.58;2.10;;;;;;;;;;5022330;28;20029;-75
2023/06/11 11:08:18;;;;;;;2.25;1.67;;;;;;;;;;5027260;28;20029;-75
2023/06/11 11:10:44;;;;;;;1.77;1.65;;;;;;;;;;5029223;28;20171;-75
2023/06/11 11:13:10;;;;;;;2.03;1.70;;;;;;;;;;5023736;28;20018;-75
2023/06/11 11:15:36;;;;;;;5.53;2.08;;;;;;;;;;5017042;28;20060;-75
2023/06/11 11:18:03;;;;;;;1.92;1.67;;;;;;;;;;5011869;28;20022;-76
2023/06/11 11:20:32;;;;;;;2.15;1.83;;;;;;;;;;5016988;28;20053;-76
2023/06/11 11:22:59;;;;;;;3.03;2.10;;;;;;;;;;5022170;28;20033;-76
2023/06/11 11:25:27;;;;;;;3.30;2.17;;;;;;;;;;5018039;28;20030;-76
2023/06/11 11:27:53;;;;;;;2.38;1.90;;;;;;;;;;5027415;28;20066;-76
2023/06/11 11:30:19;;;;;;;2.13;1.65;;;;;;;;;;5026211;28;20439;-75
2023/06/11 11:32:46;;;;;;;2.10;1.77;;;;;;;;;;5026405;28;20029;-76
2023/06/11 11:35:13;;;;;;;2.80;2.13;;;;;;;;;;5021753;28;20037;-76
2023/06/11 11:37:39;;;;;;;2.78;2.00;;;;;;;;;;5023269;28;20037;-76
2023/06/11 11:40:06;;;;;;;2.58;1.77;;;;;;;;;;5031021;28;20021;-75
2023/06/11 11:42:33;;;;;;;3.05;2.00;;;;;;;;;;5027000;28;20124;-76
2023/06/11 11:45:00;;;;;;;2.75;2.20;;;;;;;;;;5034872;28;20119;-76
2023/06/11 11:47:27;;;;;;;4.75;2.13;;;;;;;;;;5027783;28;20107;-76
2023/06/11 11:49:54;;;;;;;3.05;2.25;;;;;;;;;;5026458;28;20127;-76
2023/06/11 11:52:23;;;;;;;2.53;1.92;;;;;;;;;;5028046;28;20022;-75
2023/06/11 11:54:49;;;;;;;4.22;2.10;;;;;;;;;;5024601;28;20029;-76
2023/06/11 11:57:20;;;;;;;3.63;2.20;;;;;;;;;;5034517;28;20059;-76
2023/06/11 11:59:46;;;;;;;3.90;2.37;;;;;;;;;;5033759;28;20028;-75
2023/06/11 12:02:12;;;;;;;5.10;2.65;;;;;;;;;;5033060;28;20033;-75
2023/06/11 12:04:42;;;;;;;5.07;2.25;;;;;;;;;;5036081;28;20021;-75
2023/06/11 12:07:11;;;;;;;3.70;2.38;;;;;;;;;;5025300;28;20052;-75
2023/06/11 12:09:38;;;;;;;3.03;2.47;;;;;;;;;;5029064;28;20056;-75
2023/06/11 12:12:04;;;;;;;4.93;2.17;;;;;;;;;;5028147;28;20029;-75
2023/06/11 12:14:30;;;;;;;3.70;2.75;;;;;;;;;;5033011;28;20033;-75
2023/06/11 12:16:56;;;;;;;4.28;2.55;;;;;;;;;;5036908;28;20022;-75
2023/06/11 12:19:22;;;;;;;3.10;2.47;;;;;;;;;;5030088;28;20045;-75
2023/06/11 12:21:48;;;;;;;3.33;2.55;;;;;;;;;;5020696;28;20052;-75
2023/06/11 12:24:15;;;;;;;3.60;2.85;;;;;;;;;;5022501;28;20492;-75
2023/06/11 12:26:50;;;;;;;2.92;2.60;;;;;;;;;;5009311;28;20026;-75
2023/06/11 12:29:16;;;;;;;3.60;2.90;;;;;;;;;;5023342;28;20026;-75
2023/06/11 12:31:45;;;;;;;3.08;2.53;;;;;;;;;;5023986;28;20023;-75
2023/06/11 12:34:15;;;;;;;3.08;2.35;;;;;;;;;;5017893;28;20026;-76
2023/06/11 12:36:43;;;;;;;3.80;2.75;;;;;;;;;;4998085;28;20086;-76
2023/06/11 12:39:10;;;;;;;7.72;3.30;;;;;;;;;;5021438;28;20038;-75
2023/06/11 12:41:38;;;;;;;3.45;2.65;;;;;;;;;;5018434;28;20109;-76
2023/06/11 12:44:04;;;;;;;8.48;2.80;;;;;;;;;;5018522;28;20042;-75
2023/06/11 12:46:31;;;;;;;4.05;2.70;;;;;;;;;;5013802;28;20677;-75
2023/06/11 12:48:57;;;;;;;3.97;2.70;;;;;;;;;;5014049;28;20028;-75
2023/06/11 12:51:23;;;;;;;5.03;2.75;;;;;;;;;;5030375;28;20033;-76
2023/06/11 12:53:52;;;;;;;4.75;3.00;;;;;;;;;;5026769;28;20071;-76
2023/06/11 12:56:18;;;;;;;3.65;2.80;;;;;;;;;;5032258;28;20029;-75
2023/06/11 12:58:44;;;;;;;3.90;3.00;;;;;;;;;;5033444;28;20034;-78
2023/06/11 13:01:10;;;;;;;3.55;2.60;;;;;;;;;;5025753;28;20033;-77
2023/06/11 13:03:36;;;;;;;3.20;2.55;;;;;;;;;;5011752;28;20549;-76
2023/06/11 13:06:02;;;;;;;3.92;2.30;;;;;;;;;;5020516;28;20448;-74
2023/06/11 13:08:29;;;;;;;3.03;2.42;;;;;;;;;;5012447;28;20493;-77
2023/06/11 13:10:55;;;;;;;5.00;2.65;;;;;;;;;;5020109;28;20506;-80
2023/06/11 13:13:21;;;;;;;2.45;2.08;;;;;;;;;;5014045;28;20025;-81
2023/06/11 13:15:47;;;;;;;2.33;2.00;;;;;;;;;;5016528;28;20385;-82
2023/06/11 13:18:14;;;;;;;4.68;2.80;;;;;;;;;;5017372;28;20029;-81
2023/06/11 13:20:40;;;;;;;2.42;2.13;;;;;;;;;;5015859;28;20025;-78
2023/06/11 13:23:06;;;;;;;3.67;2.33;;;;;;;;;;5017124;28;20803;-77
2023/06/11 13:25:33;;;;;;;3.90;2.40;;;;;;;;;;5022234;28;20042;-76
2023/06/11 13:27:59;;;;;;;3.45;2.50;;;;;;;;;;5014237;28;20017;-78
2023/06/11 13:30:25;;;;;;;7.03;2.88;;;;;;;;;;5020999;28;20550;-75
2023/06/11 13:32:51;;;;;;;4.05;2.60;;;;;;;;;;5029700;28;20025;-76
2023/06/11 13:35:17;;;;;;;3.33;2.47;;;;;;;;;;5017328;28;20044;-80
2023/06/11 13:37:43;;;;;;;4.15;2.83;;;;;;;;;;5018190;28;20029;-79
2023/06/11 13:40:09;;;;;;;3.47;2.83;;;;;;;;;;5015813;28;20030;-79
2023/06/11 13:42:35;;;;;;;8.27;2.70;;;;;;;;;;5015358;28;20124;-79
2023/06/11 13:45:05;;;;;;;5.32;2.88;;;;;;;;;;5024178;28;20112;-79
2023/06/11 13:47:31;;;;;;;6.10;3.88;;;;;;;;;;5023076;28;20029;-80
2023/06/11 13:49:57;;;;;;;5.85;4.25;;;;;;;;;;5023666;28;20034;-85
2023/06/11 13:52:24;;;;;;;7.68;5.10;;;;;;;;;;5018559;28;20021;-82
2023/06/11 13:54:50;;;;;;;12.30;5.32;;;;;;;;;;5025108;28;20108;-80
2023/06/11 13:57:19;;;;;;;79.32;13.85;;;;;;;;;;5021232;28;20029;-88
2023/06/11 13:59:46;;;;;;;116.15;18.17;;;;;;;;;;5019869;28;20045;-87
2023/06/11 14:02:12;;;;;;;56.30;10.88;;;;;;;;;;5013415;28;20370;-88
2023/06/11 14:04:38;;;;;;;11.25;5.25;;;;;;;;;;5021150;28;20032;-88
2023/06/11 14:07:05;;;;;;;16.25;4.47;;;;;;;;;;5016131;28;20041;-85
2023/06/11 14:09:31;;;;;;;12.15;4.03;;;;;;;;;;5021502;28;20051;-82
2023/06/11 14:11:57;;;;;;;8.50;4.20;;;;;;;;;;5015059;28;20022;-82
2023/06/11 14:14:23;;;;;;;5.00;2.95;;;;;;;;;;5014315;28;20031;-81
2023/06/11 14:16:49;;;;;;;6.70;3.10;;;;;;;;;;5026335;28;20468;-79
2023/06/11 14:19:16;;;;;;;5.00;3.17;;;;;;;;;;5020004;28;20146;-81
2023/06/11 14:21:41;;;;;;;6.68;3.50;;;;;;;;;;5003063;28;20022;-82
2023/06/11 14:24:09;;;;;;;6.82;3.22;;;;;;;;;;5012683;28;20041;-82
2023/06/11 14:26:35;;;;;;;5.28;3.08;;;;;;;;;;5017543;28;20021;-84
2023/06/11 14:29:01;;;;;;;4.30;2.95;;;;;;;;;;5016027;28;20612;-83
2023/06/11 14:31:27;;;;;;;6.30;3.20;;;;;;;;;;5015042;28;20029;-82
2023/06/11 14:33:53;;;;;;;6.43;3.53;;;;;;;;;;5025702;28;20434;-81
2023/06/11 14:36:19;;;;;;;9.70;5.80;;;;;;;;;;5015087;28;20030;-78
2023/06/11 14:38:45;;;;;;;6.78;4.90;;;;;;;;;;5017477;28;20028;-77
2023/06/11 14:41:11;;;;;;;10.93;6.95;;;;;;;;;;5018825;28;20392;-76